Peoria, IL

3:27 PM CDT on April 29, 2017 (GMT -0500)
Red Bird Ridge | | Change Station
Active Advisory: Flood Warning

Elev 771 ft 40.81 °N, 89.38 °W | Updated 13 minutes ago

Rain
Rain Mist
42.2 °F
Feels Like 40 °F
N
4.0
Wind Variable Wind from NE
Gusts 10.0 mph

Today
High -- | Low -- °F
--% Chance of Precip.
Yesterday
High -- | Low -- °F
Precip. -- in
Pressure 29.99 in
Visibility 2.5 miles
Clouds Mostly Cloudy 800 ft
Mostly Cloudy 1500 ft
Overcast 3300 ft
Windchill 40 °F
Dew Point 41.0 °F
Humidity 95%
Rainfall 0.75 in
Snow Depth Not available.
5:59 AM 7:52 PM
Waxing Crescent, 16% visible
SPECI KPIA 292022Z 05015G25KT 2 1/2SM VCTS RA BR BKN008 BKN015 OVC033 06/06 A2999 RMK AO2 PK WND 06028/2011 LTG DSNT ALQDS P0016 T00610056
Pressure 29.99 in
Visibility 2.5 miles
Clouds Mostly Cloudy 800 ft
Mostly Cloudy 1500 ft
Overcast 3300 ft
Windchill 40 °F
Dew Point 41.0 °F
Humidity 95%
Rainfall 0.75 in
Snow Depth Not available.
5:59 AM 7:52 PM
Waxing Crescent, 16% visible
SPECI KPIA 292022Z 05015G25KT 2 1/2SM VCTS RA BR BKN008 BKN015 OVC033 06/06 A2999 RMK AO2 PK WND 06028/2011 LTG DSNT ALQDS P0016 T00610056

Get Your Daily Forecast Email!

Thanks for signing up!

Be on the lookout for a verification email in your inbox.

You'll start receiving severe weather alerts in your inbox..

×

10-Day Weather Forecast

Almanac

Astronomy

Apr. 29, 2017 Rise Set
Actual Time
Civil Twilight
Nautical Twilight
Astronomical Twilight
Moon
Length of Visible Light
Length of Day
Tomorrow will be .
, % of the Moon is Illuminated

Today's Extremes

State Highs State Lows

Community

WunderPhotos

WunderBlog® & News

Nearby

Air Quality

  Air Quality AQ Index Pollutant
Not available.

Snow Depth

Station Depth Elevation

Earthquake Activity

City Distance Mag. Time & Date
Minimum magnitude displayed is 2.5.

Coastal Water Temperatures

Place Temperature

Stations

Nearby Weather Stations

Station Location Temp. Windchill Dew Point Humidity Wind Precip. Elev Updated Type
                   

Watches & Warnings

Flood Warning
Issued: 12:52 PM CDT Apr. 29, 2017 – National Weather Service

The Flood Warning continues for
the Illinois River near Peoria.
* From Monday afternoon until further notice.
* At 1245 PM Saturday the stage was 15.2 feet.
* Flood stage is 18.0 feet.
* Moderate flooding is forecast.
* Forecast... rise above flood stage by Monday afternoon and continue
to rise to near 26.6 feet by early Friday morning.
* Impact... at 26.5 feet... several houses in Rome and Chillicothe
become isolated. Homes on sunset Dr. Between north Ave. And Collins
Ave... 4 miles SSW of Bay View gardens... are surrounded by water. In
Spring Bay... North Lake street from Missouri St. To Zimmerman Rd.
Is flooded.



                  Fld observed forecast 6am
location stg stg day time sun Mon Tue

Illinois River
Peoria 18 15.2 Sat 1 PM 15.3 17.1 20.5



Lat... Lon 4093 8952 4093 8941 4062 8957 4047 8980
      4053 8988 4068 8965